RJTT V M0030
ILS Z RWY34L/ILS Z RWY34R LDG RWY 34L/34R DEP RWY 05/34R DEP FREQ 126.0 FM RWY05. 120.8 FM RWY34R, SIMUL PARL ILS APCHS TO RWY34L/R ARE INPR, M 170030Z 04005KT 15KM -RA FEW015CU SCT029SC BKN035SC 17/14 Q1015/A2998= Q/TWO NINE NINE EIGHT STP

TAF RJTT 162312Z 1700/1806 16006KT 9999 FEW020 BKN040
BECMG 1715/1718 02006KT
BECMG 1800/1803 10006KT